Time;durP1;ratioP1;P1;durP2;ratioP2;P2;SDS_P1;SDS_P2;PMS_P1;PMS_P2;Temp;Humidity;BMP_temperature;BMP_pressure;BME280_temperature;BME280_humidity;BME280_pressure;Samples;Min_cycle;Max_cycle;Signal;HPM_P1;HPM_P2
2023/10/30 00:01:36;;;;;;;10.98;5.10;;;;;;;13.13;85.21;100970.97;10452451;28;20041;-61
2023/10/30 00:06:37;;;;;;;12.25;4.53;;;;;;;12.85;85.75;100975.84;10452102;28;20552;-61
2023/10/30 00:11:37;;;;;;;31.27;12.63;;;;;;;12.74;85.90;100995.66;10451611;28;20041;-61
2023/10/30 00:16:38;;;;;;;18.33;7.18;;;;;;;12.64;86.63;100984.31;10451422;28;20037;-62
2023/10/30 00:21:40;;;;;;;9.73;4.57;;;;;;;12.76;87.05;101022.97;10451160;28;20420;-62
2023/10/30 00:26:41;;;;;;;7.65;4.25;;;;;;;12.81;87.11;101039.31;10451043;28;20036;-61
2023/10/30 00:31:41;;;;;;;8.32;4.53;;;;;;;12.73;86.83;101040.13;10451463;28;20040;-61
2023/10/30 00:36:42;;;;;;;8.07;4.28;;;;;;;12.77;87.01;101046.84;10451457;28;20530;-61
2023/10/30 00:41:43;;;;;;;14.65;6.78;;;;;;;12.91;87.75;101060.50;10451516;28;20041;-61
2023/10/30 00:46:43;;;;;;;19.30;7.78;;;;;;;12.91;87.80;101050.66;10450881;28;20037;-61
2023/10/30 00:51:44;;;;;;;22.15;7.45;;;;;;;12.63;88.17;101009.31;10450875;28;20037;-61
2023/10/30 00:56:45;;;;;;;21.42;8.90;;;;;;;12.84;88.46;101071.00;10450536;28;20072;-61
2023/10/30 01:01:46;;;;;;;11.82;5.90;;;;;;;12.53;88.55;101026.31;10450550;28;20539;-61
2023/10/30 01:06:47;;;;;;;10.02;5.15;;;;;;;12.82;88.40;101072.97;10449648;28;20045;-61
2023/10/30 01:11:47;;;;;;;16.33;5.53;;;;;;;12.17;88.82;100969.75;10449192;28;20041;-61
2023/10/30 01:16:49;;;;;;;15.85;6.75;;;;;;;12.82;89.08;101082.81;10450471;28;20045;-61
2023/10/30 01:21:49;;;;;;;12.80;6.55;;;;;;;12.81;89.60;101071.31;10449357;28;20033;-61
2023/10/30 01:26:50;;;;;;;13.88;5.80;;;;;;;12.89;89.85;101089.16;10448949;28;20048;-61
2023/10/30 01:31:51;;;;;;;23.13;9.45;;;;;;;12.79;90.35;101095.47;10448214;28;20081;-61
2023/10/30 01:36:51;;;;;;;20.20;7.72;;;;;;;12.70;90.18;101095.63;10448840;28;20081;-63
2023/10/30 01:41:53;;;;;;;22.52;8.27;;;;;;;12.76;90.37;101103.78;10450199;28;20444;-62
2023/10/30 01:46:53;;;;;;;23.40;9.18;;;;;;;12.69;90.88;101132.13;10448650;28;20043;-61
2023/10/30 01:51:54;;;;;;;17.30;8.25;;;;;;;12.50;91.68;101121.72;10448819;28;20041;-61
2023/10/30 01:56:55;;;;;;;27.50;8.23;;;;;;;12.56;91.50;101147.72;10448261;28;20504;-61
2023/10/30 02:01:56;;;;;;;17.88;8.05;;;;;;;12.53;92.03;101153.38;10448714;28;20048;-62
2023/10/30 02:06:57;;;;;;;20.30;8.75;;;;;;;12.47;92.12;101175.34;10448571;28;20045;-61
2023/10/30 02:11:58;;;;;;;20.67;9.35;;;;;;;12.31;92.71;101184.94;10437847;28;20041;-61
2023/10/30 02:16:59;;;;;;;23.15;9.18;;;;;;;12.13;92.79;101160.19;10446673;28;20090;-61
2023/10/30 02:22:00;;;;;;;18.25;8.10;;;;;;;12.37;91.51;101193.28;10453675;28;20045;-61
2023/10/30 02:27:01;;;;;;;26.73;6.78;;;;;;;12.37;91.02;101187.97;10455892;28;20132;-61
2023/10/30 02:32:02;;;;;;;19.85;7.28;;;;;;;12.20;90.93;101190.53;10454616;28;20108;-61
2023/10/30 02:37:03;;;;;;;19.35;7.20;;;;;;;11.59;91.29;101122.22;10455149;28;20525;-61
2023/10/30 02:42:04;;;;;;;9.90;6.03;;;;;;;11.64;91.42;101165.19;10454518;28;20072;-61
2023/10/30 02:47:05;;;;;;;13.27;6.85;;;;;;;11.24;91.82;101144.38;10454276;28;20049;-61
2023/10/30 02:52:06;;;;;;;11.43;5.68;;;;;;;11.45;92.20;101183.97;10454002;28;20086;-61
2023/10/30 02:57:06;;;;;;;11.68;5.25;;;;;;;11.17;92.67;101170.75;10453293;28;20071;-61
2023/10/30 03:02:08;;;;;;;43.25;6.40;;;;;;;11.15;93.09;101204.63;10454952;28;20131;-61
2023/10/30 03:07:08;;;;;;;26.90;5.53;;;;;;;11.05;93.78;101209.19;10455050;28;20033;-62
2023/10/30 03:12:09;;;;;;;13.65;4.53;;;;;;;10.75;93.72;101203.19;10453976;28;20036;-61
2023/10/30 03:17:10;;;;;;;15.27;6.00;;;;;;;10.63;95.04;101204.38;10451904;28;20044;-61
2023/10/30 03:22:10;;;;;;;18.85;8.43;;;;;;;10.46;96.23;101208.63;10453770;28;20145;-61
2023/10/30 03:27:11;;;;;;;25.33;8.85;;;;;;;10.25;96.77;101184.94;10452895;28;20037;-61
2023/10/30 03:32:12;;;;;;;14.27;6.57;;;;;;;10.36;97.46;101229.09;10452958;28;20056;-63
2023/10/30 03:37:12;;;;;;;12.57;5.90;;;;;;;10.20;97.48;101221.69;10452634;28;20084;-61
2023/10/30 03:42:13;;;;;;;80.40;13.25;;;;;;;10.20;97.67;101237.63;10453035;28;20047;-61
2023/10/30 03:47:14;;;;;;;53.95;10.82;;;;;;;10.25;97.01;101243.34;10452976;28;20045;-61
2023/10/30 03:52:14;;;;;;;24.50;7.53;;;;;;;9.89;97.11;101183.91;10452195;28;20060;-61
2023/10/30 03:57:15;;;;;;;35.30;7.45;;;;;;;10.11;97.04;101233.16;10448048;28;20056;-61
2023/10/30 04:02:16;;;;;;;24.45;5.75;;;;;;;10.05;96.64;101232.78;10450966;28;20049;-61
2023/10/30 04:07:17;;;;;;;13.20;4.25;;;;;;;10.13;96.84;101253.28;10451177;28;20045;-61
2023/10/30 04:12:20;;;;;;;16.38;5.40;;;;;;;10.13;97.63;101261.25;10449855;28;20045;-61
2023/10/30 04:17:21;;;;;;;33.93;6.67;;;;;;;10.21;97.19;101263.22;10451009;28;20106;-59
2023/10/30 04:22:22;;;;;;;23.15;6.38;;;;;;;10.44;96.57;101279.66;10451779;28;20104;-60
2023/10/30 04:27:23;;;;;;;22.08;7.07;;;;;;;10.91;96.12;101301.72;10450578;28;20127;-60
2023/10/30 04:32:24;;;;;;;31.80;7.45;;;;;;;11.19;95.42;101312.41;10473718;28;20052;-61
2023/10/30 04:37:25;;;;;;;32.60;7.05;;;;;;;11.32;94.28;101288.94;10538850;28;20055;-62
2023/10/30 04:42:27;;;;;;;28.67;7.30;;;;;;;11.73;93.10;101325.78;10516572;28;20043;-61
2023/10/30 04:47:27;;;;;;;26.63;8.55;;;;;;;11.98;92.79;101340.19;10538502;28;20522;-61
2023/10/30 04:52:30;;;;;;;21.15;7.57;;;;;;;12.33;91.95;101349.97;10510945;28;20040;-61
2023/10/30 04:57:31;;;;;;;20.20;7.43;;;;;;;12.62;90.74;101339.00;10497737;28;20079;-61
2023/10/30 05:02:31;;;;;;;11.00;5.20;;;;;;;12.87;90.59;101344.50;10519030;28;20078;-60
2023/10/30 05:07:32;;;;;;;9.02;4.85;;;;;;;13.18;89.72;101348.28;10518280;28;20032;-60
2023/10/30 05:12:33;;;;;;;11.57;4.13;;;;;;;13.17;88.66;101301.28;10522864;28;20044;-61
2023/10/30 05:17:37;;;;;;;8.05;4.18;;;;;;;13.55;87.50;101291.06;10536025;28;20082;-59
2023/10/30 05:22:40;;;;;;;9.27;4.20;;;;;;;14.15;85.83;101360.25;10539715;28;20032;-60
2023/10/30 05:27:41;;;;;;;9.57;3.92;;;;;;;14.38;84.80;101355.03;10538586;28;20040;-60
2023/10/30 05:32:41;;;;;;;7.85;4.00;;;;;;;14.60;83.43;101352.72;10538082;28;20542;-60
2023/10/30 05:37:42;;;;;;;9.73;4.28;;;;;;;14.91;81.71;101354.66;10539252;28;20067;-63
2023/10/30 05:42:43;;;;;;;10.88;4.10;;;;;;;15.21;80.06;101361.09;10538181;28;20036;-60
2023/10/30 05:47:44;;;;;;;6.07;3.63;;;;;;;15.20;78.23;101305.88;10537610;28;20054;-61
2023/10/30 05:52:45;;;;;;;10.85;3.90;;;;;;;15.61;77.32;101372.59;10537477;28;20036;-61
2023/10/30 05:57:48;;;;;;;7.10;3.80;;;;;;;15.76;77.06;101373.53;10537319;28;20086;-61
2023/10/30 06:02:49;;;;;;;10.13;4.03;;;;;;;16.10;76.28;101372.31;10537731;28;20460;-60
2023/10/30 06:07:49;;;;;;;10.05;4.05;;;;;;;16.30;75.17;101364.59;10537654;28;20044;-60
2023/10/30 06:12:50;;;;;;;8.70;3.80;;;;;;;16.49;74.36;101358.75;10537622;28;20036;-61
2023/10/30 06:17:51;;;;;;;7.43;3.58;;;;;;;16.26;73.07;101315.88;10536913;28;20075;-61
2023/10/30 06:22:52;;;;;;;7.05;3.53;;;;;;;16.52;71.81;101315.47;10537183;28;20032;-60
2023/10/30 06:27:53;;;;;;;8.57;3.58;;;;;;;16.94;69.93;101353.47;10537084;28;20051;-60
2023/10/30 06:32:53;;;;;;;11.07;3.38;;;;;;;17.35;68.51;101372.59;10536727;28;20071;-61
2023/10/30 06:37:54;;;;;;;8.35;2.72;;;;;;;17.72;66.83;101368.91;10537831;28;20074;-61
2023/10/30 06:42:55;;;;;;;5.65;2.70;;;;;;;17.77;65.33;101346.84;10536765;28;20442;-62
2023/10/30 06:47:56;;;;;;;5.75;2.38;;;;;;;17.99;63.92;101350.38;10537439;28;20040;-60
2023/10/30 06:52:57;;;;;;;5.70;2.80;;;;;;;18.01;63.64;101329.53;10537416;28;20086;-61
2023/10/30 06:57:58;;;;;;;5.07;3.03;;;;;;;18.59;62.70;101365.16;10536869;28;20123;-61
2023/10/30 07:02:58;;;;;;;7.80;2.45;;;;;;;18.50;61.07;101344.81;10536716;28;20043;-61
2023/10/30 07:07:59;;;;;;;16.73;7.45;;;;;;;18.48;60.13;101303.81;10542339;28;20089;-60
2023/10/30 07:13:00;;;;;;;12.70;4.30;;;;;;;19.03;59.44;101339.81;10544353;28;20040;-61
2023/10/30 07:18:00;;;;;;;6.90;3.28;;;;;;;19.02;58.69;101316.56;10543576;28;20488;-61
2023/10/30 07:23:01;;;;;;;7.78;3.95;;;;;;;19.22;58.62;101343.63;10543969;28;20395;-61
2023/10/30 07:28:02;;;;;;;7.10;2.92;;;;;;;19.28;58.29;101337.41;10543545;28;20040;-61
2023/10/30 07:33:03;;;;;;;5.43;2.90;;;;;;;19.12;57.71;101290.13;10542924;28;20062;-61
2023/10/30 07:38:03;;;;;;;11.25;3.10;;;;;;;19.69;56.42;101330.34;10543973;28;20067;-61
2023/10/30 07:43:04;;;;;;;7.05;2.95;;;;;;;19.83;55.91;101329.31;10543187;28;20044;-61
2023/10/30 07:48:06;;;;;;;6.97;2.70;;;;;;;19.99;54.80;101331.63;10543260;28;20040;-61
2023/10/30 07:53:08;;;;;;;13.27;2.88;;;;;;;20.14;54.76;101322.50;10542847;28;20093;-61
2023/10/30 07:58:09;;;;;;;9.18;3.10;;;;;;;20.09;53.96;101285.34;10542028;28;20043;-61
2023/10/30 08:03:10;;;;;;;6.95;3.25;;;;;;;20.32;54.22;101274.13;10541888;28;20040;-61
2023/10/30 08:08:11;;;;;;;10.65;3.60;;;;;;;20.65;52.67;101317.28;10542186;28;20032;-62
2023/10/30 08:13:12;;;;;;;14.13;3.88;;;;;;;20.45;52.30;101311.06;10542317;28;20404;-61
2023/10/30 08:18:12;;;;;;;3.78;2.00;;;;;;;20.43;51.07;101280.75;10541143;28;20040;-61
2023/10/30 08:23:15;;;;;;;5.88;1.90;;;;;;;20.47;51.21;101309.81;10541044;28;20047;-61
2023/10/30 08:28:16;;;;;;;5.05;2.17;;;;;;;20.29;50.84;101264.59;10541355;28;20036;-61
2023/10/30 08:33:17;;;;;;;7.05;2.40;;;;;;;20.93;50.65;101310.78;10541073;28;20044;-61
2023/10/30 08:38:17;;;;;;;11.60;3.50;;;;;;;20.82;50.05;101255.56;10541291;28;20113;-61
2023/10/30 08:43:18;;;;;;;8.70;3.88;;;;;;;21.20;49.83;101298.00;10540285;28;20043;-61
2023/10/30 08:48:19;;;;;;;6.78;3.33;;;;;;;21.20;49.41;101303.41;10539331;28;20036;-61
2023/10/30 08:53:19;;;;;;;10.75;4.10;;;;;;;21.37;48.83;101307.28;10540763;28;20047;-61
2023/10/30 08:58:20;;;;;;;11.27;3.55;;;;;;;21.62;48.64;101301.94;10539399;28;20042;-61
2023/10/30 09:03:21;;;;;;;5.03;2.60;;;;;;;21.42;48.65;101306.66;10539485;28;20047;-62
2023/10/30 09:08:21;;;;;;;4.53;2.70;;;;;;;21.32;48.64;101298.13;10539100;28;20036;-61
2023/10/30 09:13:22;;;;;;;13.00;4.80;;;;;;;21.42;48.33;101280.44;10539989;28;20476;-61
2023/10/30 09:18:23;;;;;;;7.63;2.45;;;;;;;21.40;47.40;101231.19;10539351;28;20133;-60
2023/10/30 09:23:23;;;;;;;7.63;3.70;;;;;;;21.93;47.25;101266.97;10538721;28;20032;-60
2023/10/30 09:28:24;;;;;;;22.83;5.93;;;;;;;22.07;47.51;101273.94;10537756;28;20040;-60
2023/10/30 09:33:25;;;;;;;8.32;3.78;;;;;;;22.11;47.66;101259.75;10538393;28;20032;-61
2023/10/30 09:38:26;;;;;;;15.23;6.65;;;;;;;21.92;47.74;101213.94;10539374;28;20052;-60
2023/10/30 09:43:29;;;;;;;5.85;3.17;;;;;;;21.75;46.95;101203.69;10536150;28;20047;-60
2023/10/30 09:48:32;;;;;;;8.63;4.55;;;;;;;21.73;47.27;101216.59;10527056;28;20098;-61
2023/10/30 09:53:34;;;;;;;11.15;5.32;;;;;;;21.94;47.35;101266.78;10529079;28;20502;-63
2023/10/30 09:58:39;;;;;;;15.85;6.30;;;;;;;22.22;47.02;101263.63;10537939;28;20043;-62
2023/10/30 10:03:39;;;;;;;7.40;3.13;;;;;;;21.95;46.49;101205.38;10538279;28;20117;-62
2023/10/30 10:08:42;;;;;;;11.73;4.03;;;;;;;22.40;47.21;101264.72;10537816;28;20044;-63
2023/10/30 10:13:48;;;;;;;5.78;2.88;;;;;;;22.38;47.04;101248.72;10538244;28;20044;-62
2023/10/30 10:18:48;;;;;;;15.23;4.30;;;;;;;22.28;46.29;101188.84;10536991;28;20040;-62
2023/10/30 10:23:49;;;;;;;23.75;7.45;;;;;;;22.68;46.50;101240.66;10537067;28;20055;-62
2023/10/30 10:28:50;;;;;;;6.68;3.30;;;;;;;22.07;46.11;101136.75;10536598;28;20040;-63
2023/10/30 10:33:53;;;;;;;12.93;3.08;;;;;;;22.61;46.16;101231.78;10537192;28;20418;-62
2023/10/30 10:38:57;;;;;;;12.33;3.90;;;;;;;22.37;45.18;101189.38;10535498;28;20047;-62
2023/10/30 10:44:00;;;;;;;7.25;2.40;;;;;;;22.62;44.71;101241.56;10543491;28;20040;-64
2023/10/30 10:49:01;;;;;;;4.43;1.80;;;;;;;22.60;44.43;101227.41;10545062;28;20070;-63
2023/10/30 10:54:10;;;;;;;10.77;2.55;;;;;;;22.57;43.86;101219.75;10545150;28;20093;-63
2023/10/30 10:59:15;;;;;;;6.45;2.30;;;;;;;22.66;43.32;101242.75;10545616;28;20043;-63
2023/10/30 11:04:16;;;;;;;8.23;2.40;;;;;;;22.70;43.98;101241.25;10543054;28;20566;-63
2023/10/30 11:09:28;;;;;;;4.00;2.22;;;;;;;22.54;43.00;101223.72;10545116;28;20044;-63
2023/10/30 11:14:48;;;;;;;99.38;81.20;;;;;;;22.27;42.75;101190.72;10544936;28;20044;-63
2023/10/30 11:19:49;;;;;;;38.85;26.98;;;;;;;22.58;43.30;101228.69;10543084;28;20085;-64
2023/10/30 11:24:50;;;;;;;44.50;25.75;;;;;;;22.46;42.59;101226.72;10543936;28;20563;-63
2023/10/30 11:30:08;;;;;;;28.23;16.65;;;;;;;22.49;41.25;101222.75;10541770;28;20126;-63
2023/10/30 11:35:09;;;;;;;15.82;8.77;;;;;;;22.32;42.97;101200.88;10525979;28;20056;-63
2023/10/30 11:40:14;;;;;;;215.77;124.85;;;;;;;22.45;42.57;101229.69;10519211;28;20044;-63
2023/10/30 11:45:23;;;;;;;63.83;32.97;;;;;;;22.08;42.22;101170.09;10525639;28;20043;-64
2023/10/30 11:50:26;;;;;;;157.82;81.60;;;;;;;22.45;42.11;101224.25;10524087;28;20047;-63
2023/10/30 11:55:29;;;;;;;26.33;15.43;;;;;;;22.26;42.71;101207.19;10523126;28;20089;-63
2023/10/30 12:00:30;;;;;;;38.03;20.45;;;;;;;22.21;42.66;101210.56;10532085;28;20040;-63
2023/10/30 12:05:31;;;;;;;1148.82;621.17;;;;;;;22.20;42.43;101210.81;10540479;28;20047;-63
2023/10/30 12:10:32;;;;;;;113.13;52.72;;;;;;;22.15;42.63;101218.72;10542120;28;20048;-63
2023/10/30 12:15:34;;;;;;;41.58;13.52;;;;;;;21.78;42.64;101183.50;10540420;28;20126;-63
2023/10/30 12:20:35;;;;;;;14.13;7.43;;;;;;;21.76;43.39;101196.41;10524330;28;20044;-63
2023/10/30 12:25:36;;;;;;;327.42;139.20;;;;;;;21.96;43.35;101234.94;10519387;28;20093;-63
2023/10/30 12:30:38;;;;;;;58.88;29.42;;;;;;;21.82;42.99;101219.84;10526576;28;20055;-63
2023/10/30 12:35:44;;;;;;;19.30;9.20;;;;;;;21.66;43.52;101221.25;10523374;28;20523;-63
2023/10/30 12:40:44;;;;;;;26.30;6.25;;;;;;;21.56;44.32;101232.50;10533234;28;20557;-63
2023/10/30 12:45:45;;;;;;;52.38;7.07;;;;;;;21.21;44.84;101191.59;10540138;28;20036;-62
2023/10/30 12:50:46;;;;;;;64.75;4.68;;;;;;;21.14;45.48;101213.22;10540397;28;20101;-62
2023/10/30 12:55:47;;;;;;;13.65;2.15;;;;;;;21.19;45.89;101235.00;10540788;28;20147;-62
2023/10/30 13:00:48;;;;;;;15.57;4.88;;;;;;;21.06;46.88;101234.25;10540038;28;20085;-63
2023/10/30 13:05:48;;;;;;;17.98;5.72;;;;;;;20.98;47.65;101244.28;10538068;28;20417;-62
2023/10/30 13:10:49;;;;;;;18.45;4.22;;;;;;;20.42;48.31;101177.38;10537720;28;20093;-62
2023/10/30 13:15:50;;;;;;;14.88;2.75;;;;;;;20.62;48.87;101246.69;10533959;28;20077;-63
2023/10/30 13:20:50;;;;;;;16.65;2.75;;;;;;;20.45;49.09;101247.13;10537743;28;20040;-64
2023/10/30 13:25:51;;;;;;;57.97;11.52;;;;;;;19.99;49.68;101204.88;10533100;28;20047;-66
2023/10/30 13:30:53;;;;;;;43.30;12.32;;;;;;;19.64;50.20;101163.78;10538307;28;20036;-63
2023/10/30 13:35:54;;;;;;;28.25;5.13;;;;;;;19.79;51.20;101220.22;10538423;28;20060;-63
2023/10/30 13:40:55;;;;;;;21.00;4.13;;;;;;;19.60;52.18;101233.47;10539202;28;20047;-58
2023/10/30 13:45:56;;;;;;;23.38;4.43;;;;;;;19.09;52.76;101182.81;10537993;28;20036;-58
2023/10/30 13:50:58;;;;;;;52.55;6.93;;;;;;;19.16;53.62;101237.50;10537984;28;20139;-59
2023/10/30 13:56:00;;;;;;;56.22;8.07;;;;;;;18.86;54.48;101246.94;10537560;28;20468;-59
2023/10/30 14:01:01;;;;;;;40.90;4.57;;;;;;;18.56;55.10;101222.94;10537863;28;20518;-58
2023/10/30 14:06:01;;;;;;;39.85;4.03;;;;;;;18.43;55.84;101241.72;10537878;28;20036;-59
2023/10/30 14:11:02;;;;;;;42.53;3.65;;;;;;;17.71;56.61;101168.38;10537693;28;20101;-58
2023/10/30 14:16:04;;;;;;;12.35;2.45;;;;;;;17.87;57.72;101228.28;10535827;28;20047;-58
2023/10/30 14:21:04;;;;;;;13.45;2.67;;;;;;;17.49;58.12;101191.75;10537585;28;20070;-58
2023/10/30 14:26:05;;;;;;;11.45;2.42;;;;;;;17.64;58.80;101258.84;10536749;28;20448;-58
2023/10/30 14:31:06;;;;;;;9.82;2.47;;;;;;;17.46;59.53;101253.91;10537270;28;20052;-58
2023/10/30 14:36:07;;;;;;;17.85;2.28;;;;;;;17.05;60.21;101226.81;10537096;28;20060;-58
2023/10/30 14:41:08;;;;;;;11.15;3.03;;;;;;;17.09;61.07;101265.69;10537294;28;20044;-58
2023/10/30 14:46:09;;;;;;;8.57;2.20;;;;;;;16.91;61.55;101263.41;10536628;28;20043;-58
2023/10/30 14:51:10;;;;;;;11.75;2.90;;;;;;;16.56;61.94;101240.81;10536199;28;20127;-60
2023/10/30 14:56:11;;;;;;;24.95;3.35;;;;;;;16.57;62.58;101255.88;10536188;28;20469;-58
2023/10/30 15:01:11;;;;;;;14.85;2.80;;;;;;;16.09;63.18;101209.81;10536203;28;20043;-59
2023/10/30 15:06:12;;;;;;;25.17;3.28;;;;;;;16.36;63.77;101270.88;10536712;28;20073;-59
2023/10/30 15:11:13;;;;;;;20.73;2.75;;;;;;;16.20;64.16;101271.03;10530371;28;20102;-60
2023/10/30 15:16:14;;;;;;;6.63;2.13;;;;;;;16.24;64.28;101276.84;10522495;28;20052;-59
2023/10/30 15:21:15;;;;;;;13.65;2.75;;;;;;;16.20;64.75;101282.59;10535631;28;20059;-59
2023/10/30 15:26:16;;;;;;;7.75;2.47;;;;;;;16.08;65.45;101288.56;10528976;28;20086;-59
2023/10/30 15:31:16;;;;;;;14.38;3.40;;;;;;;15.96;65.70;101275.59;10536766;28;20044;-59
2023/10/30 15:36:17;;;;;;;11.02;3.30;;;;;;;15.52;66.04;101214.66;10534902;28;20048;-58
2023/10/30 15:41:18;;;;;;;7.93;2.75;;;;;;;15.79;66.13;101270.56;10531111;28;20040;-60
2023/10/30 15:46:19;;;;;;;14.98;3.17;;;;;;;15.79;66.70;101267.88;10533021;28;20048;-59
2023/10/30 15:51:20;;;;;;;12.15;3.20;;;;;;;15.58;67.07;101255.09;10523162;28;20514;-60
2023/10/30 15:56:20;;;;;;;14.15;2.67;;;;;;;15.42;67.80;101264.09;10522658;28;20032;-59
2023/10/30 16:01:21;;;;;;;8.30;2.72;;;;;;;15.33;68.23;101270.50;10521796;28;20067;-60
2023/10/30 16:06:24;;;;;;;7.50;2.53;;;;;;;15.08;68.90;101270.66;10519333;28;20037;-59
2023/10/30 16:11:25;;;;;;;13.98;3.00;;;;;;;15.04;69.07;101262.13;10526548;28;20080;-60
2023/10/30 16:16:25;;;;;;;10.98;2.78;;;;;;;14.93;69.77;101257.19;10526491;28;20449;-60
2023/10/30 16:21:27;;;;;;;10.25;2.80;;;;;;;14.91;69.97;101259.19;10522158;28;20040;-59
2023/10/30 16:26:27;;;;;;;9.07;2.33;;;;;;;14.99;70.14;101256.47;10527143;28;20458;-59
2023/10/30 16:31:30;;;;;;;4.38;2.20;;;;;;;15.01;70.29;101249.09;10529368;28;20144;-58
2023/10/30 16:36:32;;;;;;;10.50;2.45;;;;;;;14.81;70.20;101205.06;10518695;28;20052;-61
2023/10/30 16:41:33;;;;;;;10.70;3.15;;;;;;;15.29;70.11;101267.34;10518327;28;20036;-60
2023/10/30 16:46:33;;;;;;;13.10;5.22;;;;;;;15.25;70.15;101255.31;10527351;28;20036;-60
2023/10/30 16:51:34;;;;;;;12.25;4.47;;;;;;;14.97;70.14;101213.00;10518558;28;20510;-59
2023/10/30 16:56:35;;;;;;;8.02;2.85;;;;;;;15.23;70.36;101265.38;10517181;28;20043;-59
2023/10/30 17:01:37;;;;;;;15.00;4.15;;;;;;;15.12;70.52;101266.59;10519051;28;20507;-61
2023/10/30 17:06:38;;;;;;;19.02;4.38;;;;;;;14.96;71.48;101258.66;10520534;28;20127;-60
2023/10/30 17:11:39;;;;;;;11.63;4.00;;;;;;;14.86;71.62;101271.41;10520649;28;20483;-60
2023/10/30 17:16:41;;;;;;;11.48;3.78;;;;;;;14.77;71.89;101267.94;10516308;28;20070;-58
2023/10/30 17:21:43;;;;;;;16.60;5.60;;;;;;;14.75;71.44;101276.13;10516935;28;20507;-59
2023/10/30 17:26:45;;;;;;;17.48;5.82;;;;;;;14.26;72.07;101203.22;10526042;28;20541;-59
2023/10/30 17:31:46;;;;;;;20.50;4.13;;;;;;;14.40;72.14;101218.56;10531892;28;20525;-59
2023/10/30 17:36:47;;;;;;;8.52;3.67;;;;;;;14.57;72.48;101267.50;10539013;28;20056;-59
2023/10/30 17:41:48;;;;;;;12.38;3.58;;;;;;;14.28;72.70;101244.81;10538054;28;20135;-59
2023/10/30 17:46:49;;;;;;;9.40;3.20;;;;;;;14.38;73.22;101277.53;10511220;28;20446;-59
2023/10/30 17:51:50;;;;;;;12.98;3.28;;;;;;;14.51;73.26;101277.03;10537010;28;20055;-59
2023/10/30 17:56:51;;;;;;;16.50;3.88;;;;;;;14.60;73.00;101264.50;10537375;28;20074;-59
2023/10/30 18:01:52;;;;;;;6.68;2.88;;;;;;;14.60;72.96;101270.66;10537021;28;20101;-59
2023/10/30 18:06:54;;;;;;;9.38;3.80;;;;;;;14.56;73.24;101266.66;10538108;28;20426;-59
2023/10/30 18:11:56;;;;;;;8.93;3.63;;;;;;;14.56;73.40;101260.47;10538234;28;20472;-59
2023/10/30 18:16:57;;;;;;;11.45;3.80;;;;;;;14.59;73.62;101260.97;10536335;28;20122;-59
2023/10/30 18:21:58;;;;;;;8.00;3.63;;;;;;;14.71;73.50;101260.59;10537101;28;20093;-58
2023/10/30 18:26:59;;;;;;;8.85;3.25;;;;;;;14.68;73.67;101263.63;10537501;28;20446;-57
2023/10/30 18:32:01;;;;;;;11.02;2.92;;;;;;;14.69;73.84;101270.63;10537317;28;20052;-57
2023/10/30 18:37:04;;;;;;;21.92;4.03;;;;;;;14.38;73.97;101231.25;10535352;28;20056;-57
2023/10/30 18:42:05;;;;;;;8.50;3.38;;;;;;;14.59;74.00;101268.16;10537222;28;20552;-59
2023/10/30 18:47:06;;;;;;;16.85;4.22;;;;;;;14.52;74.37;101265.34;10536691;28;20496;-59
2023/10/30 18:52:09;;;;;;;11.98;3.58;;;;;;;14.45;74.66;101263.47;10536706;28;20092;-58
2023/10/30 18:57:10;;;;;;;14.40;3.10;;;;;;;14.36;74.86;101273.38;10536925;28;20404;-58
2023/10/30 19:02:11;;;;;;;13.40;3.28;;;;;;;14.30;75.31;101258.03;10538813;28;20407;-58
2023/10/30 19:07:13;;;;;;;17.35;3.65;;;;;;;14.33;75.20;101271.88;10544873;28;20054;-58
2023/10/30 19:12:14;;;;;;;19.95;7.70;;;;;;;14.28;75.46;101268.88;10544416;28;20040;-59
2023/10/30 19:17:15;;;;;;;21.23;7.18;;;;;;;14.19;75.52;101264.53;10543764;28;20043;-58
2023/10/30 19:22:15;;;;;;;13.48;4.90;;;;;;;14.21;75.80;101264.34;10543693;28;20446;-58
2023/10/30 19:27:16;;;;;;;12.25;3.22;;;;;;;14.13;75.88;101251.84;10543329;28;20116;-59
2023/10/30 19:32:17;;;;;;;8.90;2.20;;;;;;;14.14;75.88;101261.53;10543989;28;20046;-59
2023/10/30 19:37:18;;;;;;;8.23;2.78;;;;;;;14.21;75.89;101259.00;10544165;28;20058;-58
2023/10/30 19:42:19;;;;;;;9.73;2.67;;;;;;;14.24;75.44;101256.84;10543532;28;20067;-58
2023/10/30 19:47:20;;;;;;;7.38;3.08;;;;;;;14.13;75.75;101244.66;10543183;28;20105;-58
2023/10/30 19:52:20;;;;;;;14.23;3.22;;;;;;;14.15;75.55;101250.69;10542526;28;20499;-60
2023/10/30 19:57:21;;;;;;;7.18;2.80;;;;;;;14.08;75.88;101247.00;10541096;28;20039;-58
2023/10/30 20:02:22;;;;;;;8.52;3.20;;;;;;;13.73;76.03;101205.50;10541915;28;20076;-59
2023/10/30 20:07:23;;;;;;;6.95;3.28;;;;;;;13.72;76.30;101221.66;10541976;28;20047;-59
2023/10/30 20:12:23;;;;;;;5.78;3.30;;;;;;;13.80;76.68;101246.53;10541087;28;20064;-59
2023/10/30 20:17:24;;;;;;;8.30;3.28;;;;;;;13.63;76.74;101240.34;10541512;28;20044;-59
2023/10/30 20:22:25;;;;;;;6.82;3.25;;;;;;;13.55;77.37;101243.03;10541808;28;20039;-59
2023/10/30 20:27:27;;;;;;;11.07;3.50;;;;;;;13.44;77.44;101246.00;10542144;28;20036;-58
2023/10/30 20:32:27;;;;;;;11.18;3.08;;;;;;;13.10;77.50;101206.03;10541213;28;20407;-58
2023/10/30 20:37:28;;;;;;;51.75;5.95;;;;;;;13.18;78.65;101252.25;10540295;28;20150;-58
2023/10/30 20:42:29;;;;;;;11.57;3.60;;;;;;;12.42;79.12;101151.84;10540397;28;20496;-58
2023/10/30 20:47:30;;;;;;;9.75;3.60;;;;;;;13.00;79.06;101248.88;10540860;28;20036;-59
2023/10/30 20:52:30;;;;;;;14.00;3.85;;;;;;;13.00;79.65;101265.69;10540281;28;20480;-59
2023/10/30 20:57:31;;;;;;;9.48;3.63;;;;;;;13.09;79.51;101261.22;10539891;28;20040;-60
2023/10/30 21:02:32;;;;;;;13.55;4.03;;;;;;;13.04;79.53;101258.19;10540380;28;20036;-59
2023/10/30 21:07:34;;;;;;;17.02;4.00;;;;;;;12.97;80.04;101262.53;10538812;28;20496;-58
2023/10/30 21:12:35;;;;;;;7.63;3.25;;;;;;;12.83;80.41;101257.78;10539274;28;20073;-58
2023/10/30 21:17:36;;;;;;;12.82;3.70;;;;;;;12.79;80.69;101260.78;10539190;28;20103;-59
2023/10/30 21:22:36;;;;;;;8.05;3.80;;;;;;;12.44;80.92;101213.78;10539081;28;20044;-59
2023/10/30 21:27:38;;;;;;;12.93;4.55;;;;;;;12.28;81.38;101192.41;10538497;28;20071;-58
2023/10/30 21:32:39;;;;;;;12.05;3.90;;;;;;;12.51;81.51;101236.16;10538943;28;20079;-59
2023/10/30 21:37:40;;;;;;;6.10;3.33;;;;;;;12.59;82.47;101240.69;10538611;28;20079;-58
2023/10/30 21:42:41;;;;;;;8.55;3.38;;;;;;;12.63;81.96;101246.56;10539063;28;20040;-58
2023/10/30 21:47:41;;;;;;;5.90;3.63;;;;;;;12.72;81.83;101227.75;10536781;28;20036;-60
2023/10/30 21:52:42;;;;;;;11.43;4.55;;;;;;;12.64;81.93;101229.56;10536912;28;20043;-58
2023/10/30 21:57:43;;;;;;;8.57;3.72;;;;;;;12.61;82.59;101222.72;10538152;28;20054;-58
2023/10/30 22:02:43;;;;;;;8.73;4.20;;;;;;;12.47;82.41;101175.34;10538522;28;20036;-58
2023/10/30 22:07:44;;;;;;;10.38;3.42;;;;;;;12.62;81.93;101175.56;10536799;28;20045;-58
2023/10/30 22:12:45;;;;;;;6.95;3.38;;;;;;;12.89;82.15;101217.16;10537226;28;20089;-58
2023/10/30 22:17:46;;;;;;;9.50;3.42;;;;;;;12.85;82.11;101194.47;10537247;28;20044;-58
2023/10/30 22:22:46;;;;;;;7.53;3.50;;;;;;;12.99;81.73;101204.53;10537178;28;20041;-61
2023/10/30 22:27:47;;;;;;;6.63;3.30;;;;;;;12.97;81.41;101206.50;10538082;28;20036;-59
2023/10/30 22:32:48;;;;;;;6.75;3.35;;;;;;;12.82;81.54;101205.47;10537429;28;20071;-58
2023/10/30 22:37:49;;;;;;;7.90;3.60;;;;;;;12.41;81.99;101170.66;10541674;28;20058;-58
2023/10/30 22:42:50;;;;;;;19.55;4.07;;;;;;;12.52;82.57;101216.50;10545156;28;20040;-59
2023/10/30 22:47:50;;;;;;;6.20;3.45;;;;;;;12.20;82.59;101163.88;10545155;28;20062;-58
2023/10/30 22:52:51;;;;;;;7.40;3.67;;;;;;;12.49;83.28;101208.00;10545347;28;20039;-59